Miscellaneous Local Product
Issued by NWS

Home | Current Version | Previous Version | Text Only | Print | Product List | Glossary On
Versions: 1 2 3 4 5 6 7 8 9 10 11 12 13 14 15 16 17 18 19 20 21 22 23 24 25 26 27 28 29 30 31 32 33 34 35 36 37 38 39 40 41 42 43 44 45 46 47 48 49 50
000
AXUS44 KLUB 142230
MISWTM

METAR KARS 142225Z 16022G32KT 27/13 A3002 RMK A01 SLP112 T02730129 RH41% DA5400
METAR KAD1 142225Z 21011KT RA 22/11 A2998 RMK A01 SLP076 T02180113 P0006 RH51% DA6000
METAR KAI1 142225Z 16018KT 27/13 A3002 RMK A01 SLP114 T02710130 RH42% DA5400
METAR KAM3 142225Z 14013G24KT 28/11 A2995 RMK A01 SLP088 T02770114 RH36% DA5500
METAR KAM1 142225Z 16022G29KT 27/12 A2999 RMK A01 SLP094 T02730115 RH38% DA5800
METAR KAM2 142225Z 16017KT 27/12 A2995 RMK A01 SLP089 T02680120 RH40% DA5500
METAR KAMH 142225Z 16025KT 29/09 A2998 RMK A01 SLP090 T02870092 RH30% DA6000 RFTI1
METAR KANS 142225Z 15012KT 29/09 A3000 RMK A01 SLP108 T02920086 RH28% DA5400
METAR KAOS 142225Z 15022KT 28/11 A3000 RMK A01 SLP101 T02810113 RH37% DA5600
METAR KASR 142225Z 17012KT 28/15 A3003 RMK A01 SLP149 T02760153 RH47% DA3500
METAR KBI1 142225Z 14013KT 26/13 A3006 RMK A01 SLP140 T02590129 RH45% DA4400
METAR KBO1 142225Z 16025KT 27/07 A2999 RMK A01 SLP071 T02670073 RH29% DA6700 RFTI1
METAR KBO2 142225Z 17026KT 27/13 A2997 RMK A01 SLP100 T02700129 RH42% DA5200
METAR KBY1 142225Z 16014KT 30/11 A2989 RMK A01 SLP069 T02980114 RH32% DA5700
METAR KBWS 142225Z 17022KT 29/10 A3001 RMK A01 SLP109 T02890104 RH32% DA5600 RFTI1
METAR KCA1 142225Z 18024KT 26/14 A2996 RMK A01 SLP113 T02650142 RH47% DA4300
METAR KQU1 142225Z 18023KT 27/11 A3000 RMK A01 SLP123 T02740112 RH37% DA4600
METAR KCA2 142225Z 15007KT 33/10 A2990 RMK A01 SLP089 T03350098 RH23% DA4800
METAR KCXS 142225Z 16021KT 27/14 A2999 RMK A01 SLP135 T02740136 RH44% DA3800
METAR KCES 142225Z 18020KT 28/12 A2999 RMK A01 SLP117 T02760116 RH38% DA4900
METAR KCL1 142225Z 16013KT 26/12 A2999 RMK A01 SLP101 T02590123 RH43% DA5400
METAR KCL2 142225Z 13009KT 26/16 A3009 RMK A01 SLP167 T02560158 RH55% DA3500
METAR KCO2 142225Z 15013KT 27/14 A3005 RMK A01 SLP146 T02740143 RH44% DA4000
METAR KCO3 142225Z 15015KT 28/15 A3001 RMK A01 SLP147 T02770150 RH46% DA3400
METAR KCO1 142225Z 13015KT 31/11 A2996 RMK A01 SLP106 T03060115 RH31% DA4900
METAR KCR2 142225Z 17017KT 30/12 A3000 RMK A01 SLP120 T03010122 RH33% DA4800 RFTI1
METAR KCR1 142225Z 16018G27KT 27/16 A3002 RMK A01 SLP153 T02720155 RH49% DA3100
METAR KDC1 142225Z 10007KT 30/09 A2995 RMK A01 SLP075 T03010088 RH27% DA6200
METAR KDVS 142225Z 17015KT 30/09 A3000 RMK A01 SLP096 T02990085 RH27% DA6100
METAR KDMS 142225Z 17022KT 27/09 A2998 RMK A01 SLP086 T02740089 RH32% DA6100 RFTI1
METAR KDO2 142225Z 12013KT 28/15 A3006 RMK A01 SLP164 T02780152 RH46% DA3300
METAR KDR1 142225Z 21020KT 28/06 A3002 RMK A01 SLP082 T02780055 RH25% DA6700 RFTI1
METAR KDO1 142225Z 16020KT 27/14 A3000 RMK A01 SLP132 T02730139 RH44% DA4100
METAR KEA1 142225Z 17019G27KT 28/10 A2999 RMK A01 SLP089 T02790096 RH32% DA6000 RFTI1
METAR KEN1 142225Z 31009KT 30/00 A2994 RMK A01 SLP066 T02960005 RH15% DA6500
METAR KES1 142225Z 15018KT 29/14 A2998 RMK A01 SLP131 T02880139 RH40% DA3900
METAR KFLS 142225Z 16019KT 26/13 A3002 RMK A01 SLP118 T02650133 RH45% DA5100
METAR KFVS 142225Z 16018KT 27/13 A3004 RMK A01 SLP133 T02670127 RH43% DA4600
METAR KCH1 142225Z 18015KT 27/15 A3006 RMK A01 SLP155 T02670149 RH48% DA3700
METAR KLA1 142225Z 15015KT 27/15 A3005 RMK A01 SLP146 T02660150 RH49% DA3800
METAR KFL1 142225Z 26013KT 24/M09 A3016 RMK A01 SLP997 T02411093 RH10% DA10200 RFTI1
METAR KMC1 142225Z 17012KT 26/15 A3010 RMK A01 SLP167 T02570150 RH51% DA3700
METAR KFAS 142225Z 16025KT 26/09 A2996 RMK A01 SLP074 T02630088 RH34% DA6200 RFTI1
METAR KFR1 142225Z 18015KT 27/12 A2994 RMK A01 SLP091 T02700124 RH41% DA5300
METAR KGGS 142225Z 16013KT 28/13 A3002 RMK A01 SLP129 T02810127 RH39% DA4500
METAR KGDS 142225Z 14022KT 28/15 A2999 RMK A01 SLP140 T02770145 RH47% DA3400
METAR KGO1 142225Z 15018KT 26/12 A3001 RMK A01 SLP116 T02580122 RH43% DA5000
METAR KGHS 142225Z 16020KT 27/12 A3002 RMK A01 SLP123 T02690123 RH40% DA4800
METAR KGU1 142225Z 16014KT 27/M01 A3009 RMK A01 SLP053 T02741009 RH16% DA8000
METAR KPFS 142225Z 15018KT 27/14 A3002 RMK A01 SLP140 T02740142 RH44% DA3800
METAR KHA3 142225Z 15021KT 28/14 A3001 RMK A01 SLP142 T02790143 RH43% DA3600
METAR KHA2 142225Z 17019KT 27/12 A3000 RMK A01 SLP098 T02750118 RH38% DA5800
METAR KHRS 142225Z 17015KT 27/10 A3000 RMK A01 SLP096 T02750099 RH34% DA5900
METAR KHA1 142225Z 17012KT 28/15 A3004 RMK A01 SLP154 T02760152 RH49% DA3300
METAR KHE1 142225Z 14011KT 27/16 A3005 RMK A01 SLP161 T02680158 RH51% DA3100
METAR KHES 142225Z 21018KT 28/04 A2994 RMK A01 SLP072 T02780041 RH23% DA6200 RFTI1
METAR KHO1 142225Z 16014KT 30/05 A3003 RMK A01 SLP103 T02980048 RH21% DA6100
METAR KKE1 142225Z 15014KT 30/09 A3000 RMK A01 SLP082 T02970090 RH28% DA6500
METAR KPD3 142225Z 17021KT 28/13 A2998 RMK A01 SLP121 T02810130 RH39% DA4600
METAR KJTS 142225Z 15013KT 27/14 A3003 RMK A01 SLP145 T02710144 RH48% DA3800
METAR KJU1 142225Z 15008KT 26/15 A3009 RMK A01 SLP174 T02570150 RH52% DA3200
METAR KKN1 142225Z 15015KT 28/15 A3002 RMK A01 SLP152 T02790153 RH46% DA3200
METAR KAHS 142225Z 14016KT 27/14 A3002 RMK A01 SLP137 T02670139 RH45% DA4100
METAR KMC5 142225Z 15024KT 26/13 A3001 RMK A01 SLP116 T02620128 RH43% DA5100
METAR KLES 142225Z 15017KT 28/12 A3002 RMK A01 SLP122 T02820117 RH37% DA5000
METAR KLE1 142225Z 17020KT 30/13 A2997 RMK A01 SLP122 T02960129 RH36% DA4300
METAR KLD1 142225Z 17018KT 28/11 A3000 RMK A01 SLP102 T02820110 RH34% DA5700 RFTI1
METAR KLO1 142225Z 15016KT 30/11 A3002 RMK A01 SLP127 T02980113 RH32% DA4700
METAR KMC6 142225Z 15021KT 26/13 A3004 RMK A01 SLP128 T02620132 RH45% DA4900
METAR KMC4 142225Z 12015KT 28/13 A3002 RMK A01 SLP129 T02800131 RH40% DA4400
METAR KMCS 142225Z 17022KT 26/12 A2999 RMK A01 SLP114 T02600124 RH45% DA4700
METAR KMES 142225Z 14018KT 28/13 A2999 RMK A01 SLP132 T02820126 RH38% DA4000
METAR KMD1 142225Z 17012KT 27/15 A3009 RMK A01 SLP167 T02710149 RH47% DA3600
METAR KME1 142225Z 17015KT 27/14 A3007 RMK A01 SLP154 T02730141 RH44% DA3900
METAR KMNS 142225Z 17019KT 29/09 A2999 RMK A01 SLP089 T02870095 RH31% DA6100 RFTI1
METAR KMUS 142225Z 17019KT 28/08 A2998 RMK A01 SLP084 T02780081 RH30% DA6100 RFTI1
METAR KNH1 142225Z 17014KT 28/12 A3003 RMK A01 SLP117 T02810117 RH36% DA5400
METAR KNOR 142225Z 16020KT 28/12 A2998 RMK A01 SLP129 T02840122 RH38% DA4100
METAR KLBW 142225Z 15015KT 28/12 A3001 RMK A01 SLP110 T02820121 RH38% DA5400
METAR KASU 142225Z 14015KT 28/14 A3006 RMK A01 SLP155 T02760136 RH44% DA3700
METAR KOES 142225Z 15020G28KT 28/12 A3002 RMK A01 SLP118 T02760116 RH37% DA5100
METAR KOD1 142225Z 17023KT 28/15 A3002 RMK A01 SLP154 T02780147 RH45% DA3100
METAR KONS 142225Z 16019KT 28/11 A2999 RMK A01 SLP095 T02800110 RH36% DA5800
METAR KPAD 142203Z 15020KT 27/14 A3003 RMK A01 SLP148 T02720141 RH45% DA3800
METAR KPD2 142225Z 14015G24KT 29/13 A2996 RMK A01 SLP102 T02860126 RH37% DA5000
METAR KPD1 142225Z 18016KT 27/12 A2999 RMK A01 SLP100 T02720118 RH38% DA5600
METAR KPD4 142225Z 18020KT 26/13 A2995 RMK A01 SLP098 T02610128 RH44% DA5000
METAR KPMS 142225Z 17018KT 27/13 A3000 RMK A01 SLP107 T02690131 RH44% DA5200
METAR KPA1 142225Z 17022KT 25/13 A3000 RMK A01 SLP105 T02520130 RH47% DA5400
METAR KPG1 142225Z 04008KT 31/11 A2997 RMK A01 SLP101 T03080115 RH30% DA5300
METAR KPPS 142225Z 15019KT 29/09 A3001 RMK A01 SLP095 T02920094 RH30% DA6100 RFTI1
METAR KPVS 142225Z 15017G30KT 28/12 A3001 RMK A01 SLP106 T02750123 RH39% DA5500
METAR KPT1 142225Z 15014KT 28/13 A3002 RMK A01 SLP129 T02760132 RH41% DA4600
METAR KRLS 142225Z 15016G30KT 26/13 A3004 RMK A01 SLP126 T02590126 RH43% DA4900
METAR KREE 142225Z 16020KT 28/12 A3000 RMK A01 SLP106 T02780116 RH37% DA5500
METAR KRRS 142225Z 16018KT 27/13 A3001 RMK A01 SLP128 T02720130 RH41% DA4500
METAR KBR1 142225Z 28012KT 28/01 A2994 RMK A01 SLP069 T02790006 RH17% DA6300
METAR KRO1 142225Z 16014KT 27/15 A3004 RMK A01 SLP149 T02670146 RH47% DA3800
METAR KST1 142225Z 16016KT 29/12 A3004 RMK A01 SLP131 T02870121 RH36% DA4800
METAR KSGV 142225Z 16016KT 29/11 A3001 RMK A01 SLP104 T02910111 RH33% DA5700
METAR KSE2 142225Z 15012KT 24/15 A3012 RMK A01 SLP174 T02410146 RH55% DA3600
METAR KSM1 142225Z 17016G26KT 30/10 A3001 RMK A01 SLP107 T02950098 RH29% DA5600
METAR KSE1 142225Z 14013KT 27/15 A3005 RMK A01 SLP163 T02670154 RH52% DA2800
METAR KSB1 142225Z 18014G19KT 31/07 A3002 RMK A01 SLP062 T03120068 RH22% DA7300
METAR KSVS 142225Z 16023KT 27/12 A3001 RMK A01 SLP113 T02720119 RH40% DA5300
METAR KSLS 142225Z 14020KT 27/13 A3003 RMK A01 SLP123 T02740127 RH40% DA5100
METAR KSM2 142225Z 15015KT 28/11 A3001 RMK A01 SLP107 T02760114 RH36% DA5500
METAR KSYS 142225Z 15015KT 27/13 A3004 RMK A01 SLP140 T02740131 RH43% DA4300
METAR KWT1 142225Z 17011G21KT 27/14 A3005 RMK A01 SLP143 T02670140 RH46% DA4100
METAR KSP2 142225Z 16021KT 27/12 A3002 RMK A01 SLP117 T02690125 RH41% DA5200
METAR KLB1 142225Z 15017KT 27/12 A3002 RMK A01 SLP117 T02740123 RH39% DA5200
METAR KSP1 142225Z 17015KT 27/14 A3002 RMK A01 SLP136 T02700139 RH46% DA4100
METAR KST2 142225Z 18014KT 27/16 A3005 RMK A01 SLP161 T02710157 RH50% DA3200
METAR KSC1 142225Z 14010KT 28/13 A3005 RMK A01 SLP144 T02780134 RH41% DA4200
METAR KST3 142225Z 17020G24KT 27/12 A2997 RMK A01 SLP096 T02680123 RH41% DA5400
METAR KST4 142225Z 15010KT 26/11 A2996 RMK A01 SLP081 T02600108 RH39% DA5900
METAR KSDS 142225Z 16020KT 28/09 A3001 RMK A01 SLP100 T02850092 RH31% DA5900 RFTI1
METAR KSW1 142225Z 15018G24KT 25/13 A3008 RMK A01 SLP152 T02520131 RH47% DA4100
METAR KTAS 142225Z 15015KT 28/12 A3002 RMK A01 SLP117 T02810120 RH37% DA5200
METAR KTA1 142225Z 15014KT 30/12 A3001 RMK A01 SLP118 T03040123 RH33% DA5200
METAR KTAT 142225Z 17015KT 29/07 A3002 RMK A01 SLP092 T02940074 RH26% DA6500
METAR KTH1 142225Z 13010G21KT 27/16 A3006 RMK A01 SLP166 T02700164 RH52% DA3000
METAR KTR1 142225Z 16019KT 28/15 A3002 RMK A01 SLP151 T02760150 RH46% DA3200
METAR KTIS 142225Z 16021KT 28/12 A2999 RMK A01 SLP100 T02760124 RH40% DA5600
METAR KTUR 142225Z 16020KT 29/12 A2998 RMK A01 SLP121 T02850123 RH38% DA4500
METAR KUM1 142225Z 17024KT 28/11 A2997 RMK A01 SLP083 T02810106 RH34% DA6100 RFTI1
METAR KVA1 142225Z 18006KT 32/06 A2998 RMK A01 SLP074 T03160063 RH21% DA6700
METAR KVE1 142225Z 15020KT 28/10 A2995 RMK A01 SLP071 T02780101 RH33% DA6300 RFTI1
METAR KVP1 142225Z 17022KT 27/12 A3001 RMK A01 SLP109 T02720117 RH38% DA5500
METAR KWA1 142225Z 15017KT 29/15 A3007 RMK A01 SLP161 T02860145 RH42% DA3700
METAR KWE1 142225Z 17013KT 27/16 A3004 RMK A01 SLP157 T02710158 RH50% DA3100
METAR KWE2 142225Z 16017KT 29/12 A3002 RMK A01 SLP115 T02930117 RH34% DA5400
METAR KWE3 142225Z 17022KT 27/13 A2999 RMK A01 SLP133 T02750133 RH42% DA3800
METAR KWVS 142225Z 15016KT 27/13 A3002 RMK A01 SLP130 T02670127 RH42% DA4600
METAR KWOS 142225Z 16018KT 28/11 A3001 RMK A01 SLP110 T02800111 RH35% DA5500 RFTI1

&&


USA.gov is the U.S. government's official web portal to all federal, state and local government web resources and services.